Time;durP1;ratioP1;P1;durP2;ratioP2;P2;SDS_P1;SDS_P2;PMS_P1;PMS_P2;Temp;Humidity;BMP_temperature;BMP_pressure;BME280_temperature;BME280_humidity;BME280_pressure;Samples;Min_cycle;Max_cycle;Signal;HPM_P1;HPM_P2
2022/11/14 00:02:43;;;;;;;;;33.50;31.75;;;;;12.10;82.60;102193.59;146633;594;45020;-81
2022/11/14 00:05:36;;;;;;;;;33.25;30.25;;;;;12.07;82.31;102195.06;146633;650;46016;-80
2022/11/14 00:08:45;;;;;;;;;36.25;31.75;;;;;12.02;82.37;102186.94;146638;747;45020;-85
2022/11/14 00:12:14;;;;;;;;;38.75;33.00;;;;;12.00;82.38;102192.06;146637;632;45013;-78
2022/11/14 00:14:58;;;;;;;;;37.25;31.25;;;;;11.95;83.67;102187.31;146710;583;46014;-78
2022/11/14 00:17:52;;;;;;;;;36.25;32.00;;;;;11.90;83.00;102193.88;146618;642;46016;-71
2022/11/14 00:20:53;;;;;;;;;33.50;29.75;;;;;11.86;82.87;102189.28;146620;617;46020;-73
2022/11/14 00:23:46;;;;;;;;;33.50;29.75;;;;;11.81;82.99;102186.34;146618;632;46014;-73
2022/11/14 00:26:43;;;;;;;;;34.50;29.50;;;;;11.80;83.30;102184.53;146622;604;46020;-71
2022/11/14 00:29:40;;;;;;;;;32.50;29.00;;;;;11.80;83.07;102184.53;146616;620;46918;-72
2022/11/14 00:32:26;;;;;;;;;34.00;30.00;;;;;11.78;84.44;102178.34;146711;566;46012;-71
2022/11/14 00:35:19;;;;;;;;;35.25;29.25;;;;;11.76;83.33;102179.91;146618;670;46012;-81
2022/11/14 00:38:14;;;;;;;;;31.25;29.00;;;;;11.72;83.13;102165.81;146622;607;46021;-81
2022/11/14 00:41:22;;;;;;;;;33.25;29.00;;;;;11.70;83.06;102163.91;146619;570;45024;-78
2022/11/14 00:44:15;;;;;;;;;30.50;28.25;;;;;11.66;82.78;102167.09;146624;660;45020;-78
2022/11/14 00:47:15;;;;;;;;;31.75;29.25;;;;;11.61;83.14;102165.84;146620;612;46013;-78
2022/11/14 00:49:55;;;;;;;;;29.75;28.00;;;;;11.59;84.67;102163.16;146701;566;46022;-78
2022/11/14 00:52:48;;;;;;;;;30.75;28.25;;;;;11.60;83.67;102158.87;146617;585;46016;-82
2022/11/14 00:55:47;;;;;;;;;29.25;25.00;;;;;11.61;83.73;102156.38;146615;710;47012;-83
2022/11/14 00:58:41;;;;;;;;;28.50;24.25;;;;;11.62;83.47;102162.44;146611;570;46016;-84
2022/11/14 01:01:49;;;;;;;;;28.00;26.50;;;;;11.61;83.16;102158.06;146617;639;46010;-84
2022/11/14 01:04:51;;;;;;;;;27.75;26.00;;;;;11.57;83.20;102156.94;146611;625;46034;-81
2022/11/14 01:07:39;;;;;;;;;26.50;25.00;;;;;11.54;84.03;102157.62;146708;580;46014;-83
2022/11/14 01:10:32;;;;;;;;;31.25;29.50;;;;;11.52;82.91;102161.81;146616;572;46012;-82
2022/11/14 01:13:38;;;;;;;;;28.25;25.25;;;;;11.47;83.04;102159.72;146623;605;46010;-77
2022/11/14 01:16:41;;;;;;;;;;;;;;;;;;;;;
2022/11/14 01:19:49;;;;;;;;;30.50;27.00;;;;;11.40;83.43;102160.97;146622;606;46012;-76
2022/11/14 01:22:43;;;;;;;;;30.50;29.50;;;;;11.34;83.41;102150.16;146617;577;46016;-79
2022/11/14 01:25:31;;;;;;;;;32.25;28.00;;;;;11.37;85.16;102155.56;146710;565;46014;-80
2022/11/14 01:28:34;;;;;;;;;25.00;23.50;;;;;11.43;84.18;102153.41;146618;670;46016;-78
2022/11/14 01:31:33;;;;;;;;;27.25;27.25;;;;;11.48;83.97;102152.00;146625;656;46010;-76
2022/11/14 01:34:34;;;;;;;;;33.75;30.50;;;;;11.53;83.83;102145.44;146619;598;46016;-77
2022/11/14 01:37:42;;;;;;;;;34.25;29.75;;;;;11.56;83.63;102147.38;146622;639;46012;-77
2022/11/14 01:40:53;;;;;;;;;29.25;27.25;;;;;11.48;82.84;102139.03;146618;577;46016;-76
2022/11/14 01:43:49;;;;;;;;;26.00;23.75;;;;;11.53;83.39;102137.66;146625;563;45020;-76
2022/11/14 01:46:45;;;;;;;;;27.25;24.00;;;;;11.53;83.18;102139.34;146618;579;46016;-79
2022/11/14 01:49:45;;;;;;;;;28.50;26.25;;;;;11.55;83.47;102135.16;146620;598;46020;-79
2022/11/14 01:52:44;;;;;;;;;28.50;26.25;;;;;11.61;83.58;102132.09;146617;647;46914;-83
2022/11/14 01:55:54;;;;;;;;;28.75;27.00;;;;;11.61;83.07;102122.59;146624;618;46021;-85
2022/11/14 01:58:58;;;;;;;;;32.50;26.50;;;;;11.68;83.83;102117.03;146620;635;46012;-84
2022/11/14 02:01:56;;;;;;;;;32.00;25.00;;;;;11.64;83.28;102125.41;146622;618;46011;-83
2022/11/14 02:05:00;;;;;;;;;28.50;25.00;;;;;11.56;83.20;102127.47;146619;658;46016;-79
2022/11/14 02:08:06;;;;;;;;;25.00;24.25;;;;;11.52;83.24;102120.25;146623;587;46010;-80
2022/11/14 02:10:58;;;;;;;;;28.25;25.75;;;;;11.53;83.96;102127.25;146620;576;45017;-76
2022/11/14 02:14:12;;;;;;;;;30.00;26.00;;;;;11.51;83.74;102126.25;146623;617;46010;-76
2022/11/14 02:17:07;;;;;;;;;30.50;27.75;;;;;11.47;83.37;102123.34;146620;570;46016;-79
2022/11/14 02:20:32;;;;;;;;;;;;;;;;;;;;;
2022/11/14 02:23:35;;;;;;;;;31.50;29.00;;;;;11.43;83.75;102111.84;146618;705;46012;-80
2022/11/14 02:26:37;;;;;;;;;30.25;25.75;;;;;11.42;84.54;102106.53;146618;609;46010;-79
2022/11/14 02:29:29;;;;;;;;;30.00;27.50;;;;;11.42;84.65;102115.22;146619;588;46012;-80
2022/11/14 02:32:22;;;;;;;;;33.50;28.75;;;;;11.45;84.79;102104.13;146620;565;46020;-78
2022/11/14 02:35:14;;;;;;;;;32.75;28.25;;;;;11.47;84.86;102110.34;146618;620;46917;-78
2022/11/14 02:38:08;;;;;;;;;27.00;25.50;;;;;11.46;85.03;102106.84;146617;611;46020;-76
2022/11/14 02:41:02;;;;;;;;;30.25;26.50;;;;;11.44;84.39;102105.84;146619;570;46016;-77
2022/11/14 02:43:54;;;;;;;;;33.50;29.00;;;;;11.44;84.19;102098.06;146619;624;46020;-74
2022/11/14 02:46:48;;;;;;;;;25.75;25.25;;;;;11.45;84.10;102104.13;146617;613;46017;-76
2022/11/14 02:49:43;;;;;;;;;31.75;28.75;;;;;11.42;84.28;102107.41;146616;620;46020;-74
2022/11/14 02:52:38;;;;;;;;;30.25;29.25;;;;;11.38;83.96;102105.41;146612;668;46016;-77
2022/11/14 02:55:38;;;;;;;;;30.75;25.75;;;;;11.33;83.73;102101.59;146619;604;46010;-80
2022/11/14 02:58:49;;;;;;;;;29.50;27.00;;;;;11.33;83.41;102096.38;146615;570;46016;-80
2022/11/14 03:01:44;;;;;;;;;25.50;24.75;;;;;11.33;84.03;102089.50;146619;589;46021;-80
2022/11/14 03:04:39;;;;;;;;;31.00;26.50;;;;;11.37;84.32;102090.63;146618;610;45029;-80
2022/11/14 03:07:30;;;;;;;;;30.25;27.00;;;;;11.40;85.86;102076.94;146705;587;45035;-80
2022/11/14 03:10:33;;;;;;;;;33.00;27.75;;;;;11.39;84.95;102078.63;146612;565;47012;-82
2022/11/14 03:13:44;;;;;;;;;35.75;30.50;;;;;11.37;85.17;102064.66;146614;575;46011;-80
2022/11/14 03:16:47;;;;;;;;;35.00;30.50;;;;;11.31;85.28;102074.63;146611;575;46916;-81
2022/11/14 03:19:40;;;;;;;;;32.00;29.25;;;;;11.27;85.06;102070.87;146615;686;46020;-79
2022/11/14 03:22:38;;;;;;;;;36.00;30.50;;;;;11.22;84.64;102069.69;146611;575;46017;-78
2022/11/14 03:25:30;;;;;;;;;33.00;30.25;;;;;11.17;84.72;102067.56;146616;644;46010;-79
2022/11/14 03:28:37;;;;;;;;;30.00;25.50;;;;;11.15;84.96;102066.53;146611;581;46917;-76
2022/11/14 03:31:33;;;;;;;;;36.00;29.50;;;;;11.13;84.91;102065.56;146615;586;46020;-76
2022/11/14 03:34:38;;;;;;;;;32.75;29.00;;;;;11.13;85.13;102061.25;146613;566;46016;-71
2022/11/14 03:37:35;;;;;;;;;33.75;30.25;;;;;11.13;85.14;102060.34;146616;573;46010;-82
2022/11/14 03:40:30;;;;;;;;;33.25;29.75;;;;;11.15;85.64;102069.12;146610;605;46012;-82
2022/11/14 03:43:27;;;;;;;;;31.25;29.50;;;;;11.17;85.39;102068.44;146614;694;46020;-77
2022/11/14 03:46:29;;;;;;;;;;;;;;;;;;;;;
2022/11/14 03:49:34;;;;;;;;;;;;;;;;;;;;;
2022/11/14 03:52:32;;;;;;;;;30.75;27.25;;;;;11.12;85.56;102062.06;146613;608;46018;-75
2022/11/14 03:55:31;;;;;;;;;31.50;28.50;;;;;11.02;84.97;102056.97;146616;620;46020;-74
2022/11/14 03:58:25;;;;;;;;;34.75;32.00;;;;;11.01;85.24;102058.69;146613;596;46013;-73
2022/11/14 04:01:28;;;;;;;;;30.25;28.75;;;;;10.98;85.10;102057.56;146612;563;46020;-74
2022/11/14 04:04:39;;;;;;;;;33.00;31.25;;;;;10.92;85.64;102051.94;146615;593;46016;-76
2022/11/14 04:07:36;;;;;;;;;30.25;25.75;;;;;10.87;85.79;102051.59;146614;580;46021;-75
2022/11/14 04:10:40;;;;;;;;;34.50;29.25;;;;;10.86;85.99;102052.41;146611;603;46016;-75
2022/11/14 04:13:44;;;;;;;;;30.50;29.50;;;;;10.88;85.73;102057.72;146613;587;46020;-74
2022/11/14 04:16:45;;;;;;;;;27.75;25.50;;;;;10.85;84.90;102061.88;146610;587;46016;-75
2022/11/14 04:19:40;;;;;;;;;31.25;29.00;;;;;10.88;85.04;102061.22;146610;565;46020;-75
2022/11/14 04:22:39;;;;;;;;;33.75;29.50;;;;;10.92;84.87;102055.44;146612;664;46016;-75
2022/11/14 04:25:34;;;;;;;;;35.25;30.00;;;;;10.93;84.83;102052.03;146614;640;46030;-76
2022/11/14 04:28:32;;;;;;;;;34.75;30.00;;;;;10.99;84.80;102049.88;146609;571;46012;-76
2022/11/14 04:31:31;;;;;;;;;33.00;28.50;;;;;11.07;85.25;102050.44;146614;590;46020;-76
2022/11/14 04:34:32;;;;;;;;;34.50;28.00;;;;;11.12;85.04;102051.69;146608;629;46016;-75
2022/11/14 04:37:28;;;;;;;;;31.50;29.75;;;;;11.18;84.99;102052.06;146611;596;46020;-75
2022/11/14 04:40:29;;;;;;;;;33.50;30.00;;;;;11.21;85.14;102041.91;146611;606;46016;-73
2022/11/14 04:43:23;;;;;;;;;29.00;27.50;;;;;11.23;84.76;102044.63;146617;572;46011;-77
2022/11/14 04:46:18;;;;;;;;;28.25;27.75;;;;;11.22;84.91;102038.53;146604;590;46012;-78
2022/11/14 04:49:22;;;;;;;;;40.25;30.75;;;;;11.22;85.17;102041.13;146612;577;46020;-77
2022/11/14 04:52:26;;;;;;;;;31.25;27.50;;;;;11.18;84.87;102038.19;146611;610;46016;-77
2022/11/14 04:55:24;;;;;;;;;30.75;27.50;;;;;11.11;84.52;102042.06;146614;590;46020;-79
2022/11/14 04:58:19;;;;;;;;;32.75;29.00;;;;;11.06;85.11;102041.75;146610;581;46014;-79
2022/11/14 05:01:20;;;;;;;;;30.75;27.75;;;;;11.06;85.15;102044.34;146614;563;46010;-79
2022/11/14 05:04:12;;;;;;;;;31.25;29.25;;;;;11.02;85.74;102037.13;146609;573;46016;-78
2022/11/14 05:07:06;;;;;;;;;36.50;31.00;;;;;10.99;86.59;102036.00;146616;667;46010;-78
2022/11/14 05:10:20;;;;;;;;;31.00;29.50;;;;;10.95;86.77;102037.50;146612;595;46016;-78
2022/11/14 05:13:20;;;;;;;;;36.75;31.75;;;;;10.98;86.88;102039.41;146616;587;46010;-78
2022/11/14 05:16:13;;;;;;;;;34.50;29.25;;;;;9.91;87.34;101843.37;146613;593;46012;-78
2022/11/14 05:19:15;;;;;;;;;37.00;32.00;;;;;11.06;87.76;102044.34;146615;610;46010;-75
2022/11/14 05:22:26;;;;;;;;;;;;;;;;;;;;;
2022/11/14 05:25:32;;;;;;;;;31.75;28.00;;;;;11.20;86.93;102044.41;146616;573;46012;-75
2022/11/14 05:28:44;;;;;;;;;;;;;;;;;;;;;
2022/11/14 05:31:40;;;;;;;;;34.25;29.25;;;;;11.29;86.20;102043.34;146613;650;46020;-73
2022/11/14 05:34:32;;;;;;;;;34.00;30.00;;;;;11.44;86.32;102051.31;146612;581;46013;-74
2022/11/14 05:37:31;;;;;;;;;38.00;32.00;;;;;11.52;86.51;102052.72;146617;646;46020;-78
2022/11/14 05:40:30;;;;;;;;;34.25;26.75;;;;;11.56;86.81;102056.44;146614;734;46012;-80
2022/11/14 05:43:28;;;;;;;;;32.75;29.75;;;;;11.48;85.97;102034.22;146617;612;46010;-80
2022/11/14 05:46:21;;;;;;;;;34.50;28.75;;;;;11.61;85.74;102057.63;146610;596;46915;-75
2022/11/14 05:49:19;;;;;;;;;34.00;30.00;;;;;11.69;85.89;102060.78;146615;761;46020;-73
2022/11/14 05:52:13;;;;;;;;;33.00;28.25;;;;;11.76;85.42;102058.69;146611;629;46012;-72
2022/11/14 05:55:15;;;;;;;;;34.75;29.75;;;;;11.89;85.74;102059.53;146614;571;46020;-72
2022/11/14 05:58:07;;;;;;;;;35.25;29.25;;;;;12.44;88.66;102058.88;146610;574;46013;-72
2022/11/14 06:01:41;;;;;;;;;36.75;31.25;;;;;13.30;89.57;102040.91;146617;575;46010;-73
2022/11/14 06:04:49;;;;;;;;;43.75;34.50;;;;;14.43;85.02;102061.44;146610;584;46014;-71
2022/11/14 06:07:41;;;;;;;;;40.50;33.25;;;;;15.35;80.80;102053.44;146614;648;46012;-73
2022/11/14 06:10:50;;;;;;;;;45.25;36.75;;;;;16.11;78.74;102053.94;146613;609;46016;-73
2022/11/14 06:13:48;;;;;;;;;49.25;41.25;;;;;16.91;74.63;102057.78;146613;607;46010;-74
2022/11/14 06:16:47;;;;;;;;;43.50;35.75;;;;;17.22;72.83;102005.03;146611;750;46012;-74
2022/11/14 06:19:41;;;;;;;;;44.75;37.00;;;;;18.00;69.75;102053.06;146616;590;46013;-75
2022/11/14 06:22:44;;;;;;;;;47.50;38.50;;;;;18.26;69.13;102055.88;146611;611;46012;-73
2022/11/14 06:25:39;;;;;;;;;48.75;39.25;;;;;18.40;67.53;102049.44;146612;609;47010;-74
2022/11/14 06:28:43;;;;;;;;;53.50;42.75;;;;;17.15;66.00;101845.75;146612;641;46017;-73
2022/11/14 06:31:42;;;;;;;;;51.50;41.25;;;;;16.94;67.75;101845.72;146615;577;46020;-74
2022/11/14 06:34:51;;;;;;;;;49.25;39.50;;;;;18.04;67.52;102051.44;146617;570;46013;-75
2022/11/14 06:37:55;;;;;;;;;44.00;37.50;;;;;16.61;67.96;101841.66;146614;574;46012;-77
2022/11/14 06:40:47;;;;;;;;;40.00;32.00;;;;;17.51;68.70;102038.72;146609;585;46012;-76
2022/11/14 06:43:57;;;;;;;;;37.50;30.00;;;;;17.28;70.19;102037.66;146615;689;46021;-79
2022/11/14 06:47:06;;;;;;;;;;;;;;;;;;;;;
2022/11/14 06:50:03;;;;;;;;;27.00;27.00;;;;;16.84;71.85;102035.66;146616;564;46021;-77
2022/11/14 06:53:17;;;;;;;;;38.50;31.25;;;;;16.74;72.59;102036.91;146613;675;46035;-73
2022/11/14 06:56:19;;;;;;;;;37.00;33.25;;;;;16.58;72.71;102040.53;146610;570;47020;-72
2022/11/14 06:59:14;;;;;;;;;36.75;32.00;;;;;16.41;73.12;102030.94;146614;578;46017;-78
2022/11/14 07:02:26;;;;;;;;;31.00;29.25;;;;;16.23;73.75;102030.97;146615;569;46010;-73
2022/11/14 07:05:22;;;;;;;;;24.50;22.25;;;;;16.06;74.76;102037.97;146614;751;46013;-71
2022/11/14 07:08:15;;;;;;;;;26.00;18.75;;;;;15.99;75.00;102038.50;146614;571;46010;-73
2022/11/14 07:11:28;;;;;;;;;32.00;27.75;;;;;15.98;75.77;102036.72;146613;667;46016;-71
2022/11/14 07:14:27;;;;;;;;;23.75;22.00;;;;;16.03;76.35;102037.81;146614;605;46012;-72
2022/11/14 07:17:23;;;;;;;;;30.00;28.75;;;;;16.08;76.40;102049.44;146612;605;46034;-74
2022/11/14 07:20:17;;;;;;;;;34.25;28.25;;;;;16.13;75.68;102042.69;146615;634;46012;-70
2022/11/14 07:23:10;;;;;;;;;32.00;28.00;;;;;16.19;75.69;102043.81;146614;613;45033;-73
2022/11/14 07:26:16;;;;;;;;;38.25;31.25;;;;;16.22;75.69;102042.25;146614;618;46020;-80
2022/11/14 07:29:16;;;;;;;;;32.50;29.00;;;;;16.29;75.79;102049.59;146610;563;47012;-75
2022/11/14 07:32:11;;;;;;;;;36.50;30.00;;;;;16.45;75.32;102050.31;146616;611;46010;-75
2022/11/14 07:35:04;;;;;;;;;31.50;25.50;;;;;16.59;74.29;102050.16;146612;606;46012;-76
2022/11/14 07:38:06;;;;;;;;;25.75;24.00;;;;;16.71;73.57;102035.88;146612;593;46020;-74
2022/11/14 07:41:21;;;;;;;;;26.75;26.75;;;;;16.87;72.52;102048.88;146612;666;46016;-75
2022/11/14 07:44:13;;;;;;;;;29.25;26.25;;;;;16.80;72.01;102042.47;146614;615;46020;-86
2022/11/14 07:47:06;;;;;;;;;27.00;26.00;;;;;16.90;74.10;102045.53;146611;630;46016;-71
2022/11/14 07:50:12;;;;;;;;;28.00;26.00;;;;;17.01;73.79;102037.34;146617;585;46020;-78
2022/11/14 07:53:16;;;;;;;;;31.50;28.50;;;;;17.27;72.84;102049.00;146615;581;46016;-69
2022/11/14 07:56:24;;;;;;;;;27.25;24.75;;;;;17.46;72.18;102047.19;146615;622;46021;-88
2022/11/14 07:59:22;;;;;;;;;34.25;31.00;;;;;17.52;70.56;102037.88;146611;615;46016;-82
2022/11/14 08:02:23;;;;;;;;;42.25;35.50;;;;;17.47;70.12;102044.63;146613;635;47010;-84
2022/11/14 08:05:36;;;;;;;;;34.00;29.00;;;;;17.50;71.76;102050.00;146613;683;46014;-76
2022/11/14 08:08:34;;;;;;;;;30.00;27.75;;;;;17.59;70.51;102060.00;146615;589;46020;-76
2022/11/14 08:14:37;;;;;;;;;27.25;23.75;;;;;17.68;68.81;102046.41;146616;575;46012;-75
2022/11/14 08:17:29;;;;;;;;;29.25;26.50;;;;;17.70;69.37;102053.53;146612;576;46919;-73
2022/11/14 08:20:23;;;;;;;;;24.25;22.75;;;;;17.76;70.86;102059.03;146611;578;46010;-74
2022/11/14 08:23:17;;;;;;;;;27.75;24.00;;;;;17.93;69.91;102051.91;146611;643;46016;-76
2022/11/14 08:26:10;;;;;;;;;29.75;27.50;;;;;18.07;68.66;102059.44;146616;619;46021;-76
2022/11/14 08:29:03;;;;;;;;;27.75;25.75;;;;;16.95;67.73;101845.78;146611;569;47012;-76
2022/11/14 08:32:00;;;;;;;;;31.00;26.25;;;;;18.24;67.46;102063.69;146616;589;47010;-77
2022/11/14 08:34:58;;;;;;;;;26.75;24.75;;;;;18.33;67.25;102066.69;146620;684;46012;-77
2022/11/14 08:37:56;;;;;;;;;25.00;24.25;;;;;18.40;67.33;102058.22;146613;570;46010;-78
2022/11/14 08:40:48;;;;;;;;;28.00;24.00;;;;;18.55;67.98;102057.94;146612;612;46915;-74
2022/11/14 08:43:49;;;;;;;;;29.00;26.00;;;;;18.71;65.96;102054.19;146615;670;46020;-75
2022/11/14 08:46:52;;;;;;;;;27.25;24.00;;;;;18.77;66.38;102051.84;146614;591;46016;-75
2022/11/14 08:49:50;;;;;;;;;24.75;22.25;;;;;18.78;64.31;102052.72;146616;596;46010;-76
2022/11/14 08:52:43;;;;;;;;;27.00;24.50;;;;;18.76;66.32;102047.44;146613;637;46016;-76
2022/11/14 08:55:46;;;;;;;;;28.00;24.75;;;;;18.81;65.54;102037.97;146618;593;46020;-74
2022/11/14 08:58:42;;;;;;;;;29.75;24.25;;;;;17.67;63.98;101842.66;146612;726;46916;-76
2022/11/14 09:01:41;;;;;;;;;27.50;25.00;;;;;18.78;63.64;102040.47;146615;673;46010;-75
2022/11/14 09:04:39;;;;;;;;;23.75;22.00;;;;;18.66;64.49;102033.00;146615;631;47012;-76
2022/11/14 09:07:33;;;;;;;;;30.75;26.75;;;;;18.74;67.10;102035.06;146611;699;46915;-78
2022/11/14 09:10:44;;;;;;;;;27.50;26.50;;;;;18.87;65.58;102026.81;146607;596;47013;-77
2022/11/14 09:13:47;;;;;;;;;28.25;27.00;;;;;19.03;67.00;102029.16;146613;576;47010;-76
2022/11/14 09:16:41;;;;;;;;;29.75;27.75;;;;;19.16;66.25;102020.03;146610;610;46012;-76
2022/11/14 09:19:40;;;;;;;;;24.25;24.25;;;;;19.30;65.03;102018.78;146610;642;46010;-75
2022/11/14 09:22:50;;;;;;;;;;;;;;;;;;;;;
2022/11/14 09:25:56;;;;;;;;;27.75;27.00;;;;;19.52;66.33;102020.44;146612;581;46021;-76
2022/11/14 09:28:50;;;;;;;;;34.25;29.00;;;;;19.69;64.88;102021.06;146614;654;46024;-75
2022/11/14 09:31:42;;;;;;;;;27.25;26.25;;;;;19.77;64.47;102006.41;146612;611;46020;-77
2022/11/14 09:34:36;;;;;;;;;31.00;28.00;;;;;19.79;62.23;102002.13;146611;651;46035;-76
2022/11/14 09:37:29;;;;;;;;;34.25;29.25;;;;;19.74;63.68;101994.91;146619;666;46020;-75
2022/11/14 09:40:22;;;;;;;;;28.75;26.00;;;;;19.77;63.09;101990.63;146609;587;46916;-78
2022/11/14 09:43:41;;;;;;;;;24.25;23.50;;;;;19.87;63.42;101993.56;146612;600;47010;-75
2022/11/14 09:46:57;;;;;;;;;25.00;23.00;;;;;18.83;61.57;101799.81;146610;646;46916;-78
2022/11/14 09:50:30;;;;;;;;;26.75;25.75;;;;;19.82;62.28;101973.28;146606;607;46020;-76
2022/11/14 09:54:05;;;;;;;;;28.50;24.75;;;;;18.68;65.96;101762.44;146613;607;45021;-80
2022/11/14 09:56:59;;;;;;;;;33.00;28.25;;;;;20.05;62.33;101965.22;146614;587;46020;-79
2022/11/14 10:00:04;;;;;;;;;31.25;26.50;;;;;20.16;64.07;101966.47;146614;570;46014;-81
2022/11/14 10:03:37;;;;;;;;;26.75;24.25;;;;;20.21;62.11;101962.22;146621;591;46010;-74
2022/11/14 10:07:25;;;;;;;;;32.50;26.25;;;;;18.88;64.81;101744.78;146616;576;46012;-83
2022/11/14 10:11:09;;;;;;;;;25.25;23.75;;;;;20.21;63.82;101946.41;146620;759;46021;-78
2022/11/14 10:14:37;;;;;;;;;27.00;24.75;;;;;20.43;61.85;101941.81;146616;570;46024;-77
2022/11/14 10:18:36;;;;;;;;;25.75;24.00;;;;;20.55;61.98;101941.34;146620;617;46011;-78
2022/11/14 10:21:57;;;;;;;;;28.25;25.25;;;;;19.57;61.49;101734.72;146617;650;46016;-70
2022/11/14 10:25:45;;;;;;;;;24.75;22.25;;;;;19.57;57.96;101720.69;146618;573;46020;-74
2022/11/14 10:28:58;;;;;;;;;28.50;22.00;;;;;20.76;60.27;101927.03;146614;607;46037;-73
2022/11/14 10:32:11;;;;;;;;;27.25;25.75;;;;;20.87;61.58;101918.53;146620;674;46020;-74
2022/11/14 10:35:28;;;;;;;;;25.75;22.50;;;;;20.29;61.93;101786.91;146615;739;46014;-74
2022/11/14 10:38:43;;;;;;;;;28.50;24.00;;;;;21.20;60.00;101919.47;146621;646;46010;-75
2022/11/14 10:41:59;;;;;;;;;29.50;26.00;;;;;21.33;60.13;101911.87;146615;616;46016;-77
2022/11/14 10:45:10;;;;;;;;;27.00;25.25;;;;;21.50;58.74;101905.31;146619;616;46012;-76
2022/11/14 10:48:19;;;;;;;;;28.00;25.00;;;;;21.49;57.82;101897.34;146616;570;46016;-67
2022/11/14 10:51:59;;;;;;;;;27.25;23.75;;;;;20.04;61.18;101682.62;146620;637;46010;-73
2022/11/14 10:55:16;;;;;;;;;29.25;26.75;;;;;21.13;59.33;101888.50;146615;617;46018;-81
2022/11/14 10:58:18;;;;;;;;;24.25;22.25;;;;;21.05;61.53;101882.13;146618;618;47010;-78
2022/11/14 11:01:45;;;;;;;;;27.25;25.25;;;;;21.18;63.35;101889.53;146614;579;46016;-78
2022/11/14 11:04:40;;;;;;;;;23.25;20.25;;;;;21.51;58.31;101879.81;146617;563;46020;-72
2022/11/14 11:14:24;;;;;;;;;26.25;23.50;;;;;20.99;59.53;101685.09;146614;586;47012;-82
2022/11/14 11:17:34;;;;;;;;;29.50;26.50;;;;;22.16;56.01;101871.66;146615;573;47021;-81
2022/11/14 11:21:06;;;;;;;;;28.50;24.50;;;;;21.01;58.23;101666.69;146614;645;46016;-80
2022/11/14 11:24:08;;;;;;;;;28.25;27.00;;;;;22.26;56.97;101864.00;146618;585;46021;-79
2022/11/14 11:27:39;;;;;;;;;27.00;25.75;;;;;22.37;58.43;101864.22;146615;570;46027;-82
2022/11/14 11:30:34;;;;;;;;;27.75;26.75;;;;;22.34;56.00;101869.44;146617;604;46020;-78
2022/11/14 11:33:33;;;;;;;;;25.25;23.50;;;;;22.13;58.29;101861.91;146617;577;46012;-80
2022/11/14 11:36:32;;;;;;;;;29.00;27.00;;;;;21.95;57.67;101865.03;146615;593;46020;-78
2022/11/14 11:39:37;;;;;;;;;36.50;29.75;;;;;21.73;56.61;101860.13;146617;611;46016;-79
2022/11/14 11:43:02;;;;;;;;;33.50;28.75;;;;;21.53;60.51;101852.62;146619;608;46020;-80
2022/11/14 11:46:03;;;;;;;;;25.75;22.00;;;;;21.60;56.98;101846.63;146616;569;46016;-79
2022/11/14 11:49:25;;;;;;;;;;;;;;;;;;;;;
2022/11/14 11:52:56;;;;;;;;;23.75;22.25;;;;;21.58;60.98;101839.53;146617;578;46016;-81
2022/11/14 11:56:00;;;;;;;;;27.00;24.75;;;;;21.67;60.41;101835.34;146620;589;46010;-82
2022/11/14 11:59:35;;;;;;;;;26.25;24.00;;;;;21.97;59.67;101828.09;146609;572;48916;-81
2022/11/14 12:02:40;;;;;;;;;25.50;22.00;;;;;21.94;57.01;101828.03;146618;614;46021;-78
2022/11/14 12:06:08;;;;;;;;;29.25;25.50;;;;;21.71;57.81;101822.22;146617;613;46012;-81
2022/11/14 12:09:25;;;;;;;;;24.75;22.25;;;;;21.60;57.79;101825.50;146617;576;47011;-80
2022/11/14 12:12:55;;;;;;;;;24.00;22.00;;;;;21.57;60.39;101824.56;146619;586;46012;-81
2022/11/14 12:16:38;;;;;;;;;;;;;;;;;;;;;
2022/11/14 12:19:51;;;;;;;;;24.50;22.75;;;;;21.41;60.26;101828.56;146617;637;46012;-82
2022/11/14 12:24:00;;;;;;;;;27.50;26.75;;;;;20.04;61.15;101605.38;146621;611;46010;-81
2022/11/14 12:27:48;;;;;;;;;26.50;22.75;;;;;20.00;60.72;101608.75;146614;632;46012;-80
2022/11/14 12:30:58;;;;;;;;;23.25;22.00;;;;;21.08;60.18;101829.47;146619;574;46020;-81
2022/11/14 12:34:01;;;;;;;;;27.00;25.00;;;;;20.95;61.15;101824.72;146617;591;46012;-81
2022/11/14 12:37:14;;;;;;;;;25.50;23.75;;;;;20.82;59.11;101826.16;146618;578;46010;-81
2022/11/14 12:40:37;;;;;;;;;32.50;29.25;;;;;20.56;60.11;101822.81;146611;603;46014;-80
2022/11/14 12:43:53;;;;;;;;;27.00;24.50;;;;;20.23;60.47;101820.97;146618;599;46020;-81
2022/11/14 12:47:41;;;;;;;;;27.75;24.00;;;;;18.62;61.65;101608.12;146611;569;46013;-81
2022/11/14 12:50:51;;;;;;;;;27.75;26.50;;;;;19.46;61.71;101815.03;146617;605;46020;-80
2022/11/14 12:53:49;;;;;;;;;31.75;30.50;;;;;19.24;61.96;101818.69;146618;564;46012;-79
2022/11/14 12:57:09;;;;;;;;;30.00;26.00;;;;;19.08;62.97;101812.03;146617;627;46020;-80
2022/11/14 13:00:07;;;;;;;;;28.00;24.50;;;;;18.93;63.12;101811.50;146614;606;46016;-81
2022/11/14 13:03:37;;;;;;;;;31.25;29.25;;;;;17.82;65.03;101596.69;146618;647;46021;-80
2022/11/14 13:07:24;;;;;;;;;27.50;25.50;;;;;19.52;63.98;101811.72;146614;580;46012;-82
2022/11/14 13:10:43;;;;;;;;;33.50;27.75;;;;;20.00;63.97;101806.22;146620;578;46012;-80
2022/11/14 13:24:33;;;;;;;;;28.00;28.00;;;;;21.34;57.89;101809.03;146621;720;46011;-81
2022/11/14 13:27:59;;;;;;;;;32.75;30.00;;;;;20.08;60.37;101586.19;146617;615;46016;-77
2022/11/14 13:31:38;;;;;;;;;29.25;26.25;;;;;21.34;60.13;101802.84;146620;617;46011;-79
2022/11/14 13:35:13;;;;;;;;;26.75;24.00;;;;;21.26;61.01;101807.94;146616;569;46016;-79
2022/11/14 13:39:07;;;;;;;;;29.50;26.00;;;;;20.96;60.65;101798.38;146616;590;46010;-80
2022/11/14 13:42:48;;;;;;;;;30.00;26.75;;;;;20.51;60.53;101804.22;146615;569;46016;-80
2022/11/14 13:46:34;;;;;;;;;28.75;26.00;;;;;18.87;60.84;101586.19;146616;628;46022;-81
2022/11/14 13:49:57;;;;;;;;;39.75;31.00;;;;;19.70;62.72;101804.44;146609;635;46915;-80
2022/11/14 13:53:05;;;;;;;;;36.25;30.50;;;;;19.41;62.11;101789.44;146621;628;46010;-81
2022/11/14 13:56:35;;;;;;;;;34.75;30.75;;;;;19.29;63.79;101811.88;146615;640;46012;-79
2022/11/14 14:00:24;;;;;;;;;34.75;28.75;;;;;19.10;64.72;101799.84;146622;564;46013;-79
2022/11/14 14:04:23;;;;;;;;;28.25;25.00;;;;;17.76;64.50;101591.19;146617;592;46016;-80
2022/11/14 14:07:58;;;;;;;;;27.50;27.25;;;;;19.00;64.91;101792.47;146619;564;46020;-81
2022/11/14 14:11:33;;;;;;;;;33.50;27.50;;;;;19.07;66.34;101794.50;146617;599;46014;-78
2022/11/14 14:15:04;;;;;;;;;26.75;24.50;;;;;18.82;63.56;101750.72;146621;573;46020;-78
2022/11/14 14:18:57;;;;;;;;;30.00;28.25;;;;;17.89;65.77;101601.31;146616;595;46012;-79
2022/11/14 14:22:16;;;;;;;;;32.75;29.75;;;;;18.93;64.45;101799.25;146618;565;46020;-79
2022/11/14 14:25:25;;;;;;;;;25.00;25.00;;;;;18.82;64.46;101784.88;146616;581;45021;-79
2022/11/14 14:29:13;;;;;;;;;29.75;26.75;;;;;18.65;64.38;101783.34;146617;575;46020;-78
2022/11/14 14:32:20;;;;;;;;;33.25;28.75;;;;;18.46;65.39;101784.44;146615;629;46017;-79
2022/11/14 14:35:45;;;;;;;;;35.50;31.00;;;;;18.36;65.25;101785.84;146617;605;46020;-78
2022/11/14 14:38:51;;;;;;;;;41.50;33.75;;;;;18.35;66.22;101777.91;146613;569;46012;-79
2022/11/14 14:41:53;;;;;;;;;32.50;29.25;;;;;18.36;66.48;101777.06;146622;595;46010;-79
2022/11/14 14:44:51;;;;;;;;;35.50;30.00;;;;;18.35;66.11;101767.38;146616;654;46013;-80